sensor_id;sensor_type;location;lat;lon;timestamp;P1;durP1;ratioP1;P2;durP2;ratioP2
5981;SDS011;3018;48.730;9.336;2024-03-22T00:01:41;12.23;;;9.77;;
5981;SDS011;3018;48.730;9.336;2024-03-22T00:04:07;14.50;;;10.68;;
5981;SDS011;3018;48.730;9.336;2024-03-22T00:06:33;14.73;;;10.88;;
5981;SDS011;3018;48.730;9.336;2024-03-22T00:08:59;11.35;;;10.05;;
5981;SDS011;3018;48.730;9.336;2024-03-22T00:11:24;11.52;;;9.55;;
5981;SDS011;3018;48.730;9.336;2024-03-22T00:13:50;10.02;;;8.98;;
5981;SDS011;3018;48.730;9.336;2024-03-22T00:16:16;13.05;;;10.38;;
5981;SDS011;3018;48.730;9.336;2024-03-22T00:18:44;11.57;;;10.27;;
5981;SDS011;3018;48.730;9.336;2024-03-22T00:21:09;13.52;;;9.65;;
5981;SDS011;3018;48.730;9.336;2024-03-22T00:23:35;14.57;;;10.40;;
5981;SDS011;3018;48.730;9.336;2024-03-22T00:26:00;13.40;;;11.00;;
5981;SDS011;3018;48.730;9.336;2024-03-22T00:28:27;16.25;;;10.00;;
5981;SDS011;3018;48.730;9.336;2024-03-22T00:30:52;12.57;;;10.13;;
5981;SDS011;3018;48.730;9.336;2024-03-22T00:33:18;12.45;;;11.13;;
5981;SDS011;3018;48.730;9.336;2024-03-22T00:35:45;12.68;;;9.85;;
5981;SDS011;3018;48.730;9.336;2024-03-22T00:38:11;20.50;;;11.95;;
5981;SDS011;3018;48.730;9.336;2024-03-22T00:40:36;14.68;;;11.65;;
5981;SDS011;3018;48.730;9.336;2024-03-22T00:43:03;18.80;;;11.63;;
5981;SDS011;3018;48.730;9.336;2024-03-22T00:45:28;13.57;;;10.93;;
5981;SDS011;3018;48.730;9.336;2024-03-22T00:47:54;13.00;;;11.13;;
5981;SDS011;3018;48.730;9.336;2024-03-22T00:50:20;17.48;;;12.88;;
5981;SDS011;3018;48.730;9.336;2024-03-22T00:52:47;17.25;;;12.65;;
5981;SDS011;3018;48.730;9.336;2024-03-22T00:55:13;16.02;;;11.30;;
5981;SDS011;3018;48.730;9.336;2024-03-22T00:57:39;15.65;;;11.75;;
5981;SDS011;3018;48.730;9.336;2024-03-22T01:00:05;12.85;;;11.55;;
5981;SDS011;3018;48.730;9.336;2024-03-22T01:02:32;14.68;;;12.18;;
5981;SDS011;3018;48.730;9.336;2024-03-22T01:04:58;17.02;;;12.70;;
5981;SDS011;3018;48.730;9.336;2024-03-22T01:07:24;17.15;;;12.18;;
5981;SDS011;3018;48.730;9.336;2024-03-22T01:09:50;17.42;;;12.75;;
5981;SDS011;3018;48.730;9.336;2024-03-22T01:12:17;18.35;;;12.30;;
5981;SDS011;3018;48.730;9.336;2024-03-22T01:14:42;11.65;;;10.48;;
5981;SDS011;3018;48.730;9.336;2024-03-22T01:17:08;14.38;;;10.52;;
5981;SDS011;3018;48.730;9.336;2024-03-22T01:19:34;13.63;;;10.88;;
5981;SDS011;3018;48.730;9.336;2024-03-22T01:22:00;13.02;;;10.48;;
5981;SDS011;3018;48.730;9.336;2024-03-22T01:24:25;12.63;;;9.40;;
5981;SDS011;3018;48.730;9.336;2024-03-22T01:26:53;15.02;;;10.43;;
5981;SDS011;3018;48.730;9.336;2024-03-22T01:29:19;15.25;;;11.55;;
5981;SDS011;3018;48.730;9.336;2024-03-22T01:31:45;12.65;;;11.18;;
5981;SDS011;3018;48.730;9.336;2024-03-22T01:34:10;12.45;;;10.73;;
5981;SDS011;3018;48.730;9.336;2024-03-22T01:36:36;12.80;;;10.80;;
5981;SDS011;3018;48.730;9.336;2024-03-22T01:39:02;14.77;;;11.25;;
5981;SDS011;3018;48.730;9.336;2024-03-22T01:41:28;13.40;;;10.90;;
5981;SDS011;3018;48.730;9.336;2024-03-22T01:43:55;13.48;;;10.20;;
5981;SDS011;3018;48.730;9.336;2024-03-22T01:46:21;12.35;;;10.40;;
5981;SDS011;3018;48.730;9.336;2024-03-22T01:48:46;15.15;;;11.20;;
5981;SDS011;3018;48.730;9.336;2024-03-22T01:51:12;13.73;;;11.60;;
5981;SDS011;3018;48.730;9.336;2024-03-22T01:53:38;13.48;;;10.75;;
5981;SDS011;3018;48.730;9.336;2024-03-22T01:56:04;13.60;;;11.02;;
5981;SDS011;3018;48.730;9.336;2024-03-22T01:58:30;13.80;;;10.95;;
5981;SDS011;3018;48.730;9.336;2024-03-22T02:00:58;14.43;;;10.70;;
5981;SDS011;3018;48.730;9.336;2024-03-22T02:03:23;12.55;;;10.88;;
5981;SDS011;3018;48.730;9.336;2024-03-22T02:05:50;14.32;;;11.45;;
5981;SDS011;3018;48.730;9.336;2024-03-22T02:08:15;15.15;;;10.70;;
5981;SDS011;3018;48.730;9.336;2024-03-22T02:10:41;13.65;;;11.25;;
5981;SDS011;3018;48.730;9.336;2024-03-22T02:13:06;16.67;;;11.98;;
5981;SDS011;3018;48.730;9.336;2024-03-22T02:15:33;13.23;;;11.23;;
5981;SDS011;3018;48.730;9.336;2024-03-22T02:17:59;13.07;;;10.90;;
5981;SDS011;3018;48.730;9.336;2024-03-22T02:20:25;15.75;;;10.52;;
5981;SDS011;3018;48.730;9.336;2024-03-22T02:22:51;13.57;;;11.55;;
5981;SDS011;3018;48.730;9.336;2024-03-22T02:25:18;18.10;;;11.43;;
5981;SDS011;3018;48.730;9.336;2024-03-22T02:27:44;13.45;;;11.63;;
5981;SDS011;3018;48.730;9.336;2024-03-22T02:30:10;18.42;;;12.45;;
5981;SDS011;3018;48.730;9.336;2024-03-22T02:32:35;17.50;;;12.93;;
5981;SDS011;3018;48.730;9.336;2024-03-22T02:35:02;15.75;;;13.07;;
5981;SDS011;3018;48.730;9.336;2024-03-22T02:37:27;13.68;;;12.10;;
5981;SDS011;3018;48.730;9.336;2024-03-22T02:39:53;17.40;;;11.93;;
5981;SDS011;3018;48.730;9.336;2024-03-22T02:42:20;19.65;;;12.98;;
5981;SDS011;3018;48.730;9.336;2024-03-22T02:44:46;13.88;;;12.05;;
5981;SDS011;3018;48.730;9.336;2024-03-22T02:47:11;17.50;;;13.07;;
5981;SDS011;3018;48.730;9.336;2024-03-22T02:49:39;16.65;;;12.73;;
5981;SDS011;3018;48.730;9.336;2024-03-22T02:52:04;20.05;;;12.75;;
5981;SDS011;3018;48.730;9.336;2024-03-22T02:54:30;14.75;;;13.20;;
5981;SDS011;3018;48.730;9.336;2024-03-22T02:56:56;15.80;;;13.15;;
5981;SDS011;3018;48.730;9.336;2024-03-22T02:59:26;17.92;;;13.82;;
5981;SDS011;3018;48.730;9.336;2024-03-22T03:01:51;20.70;;;14.43;;
5981;SDS011;3018;48.730;9.336;2024-03-22T03:04:18;18.00;;;13.88;;
5981;SDS011;3018;48.730;9.336;2024-03-22T03:06:43;19.85;;;13.80;;
5981;SDS011;3018;48.730;9.336;2024-03-22T03:09:10;15.45;;;13.65;;
5981;SDS011;3018;48.730;9.336;2024-03-22T03:11:36;17.08;;;14.45;;
5981;SDS011;3018;48.730;9.336;2024-03-22T03:14:02;18.85;;;15.15;;
5981;SDS011;3018;48.730;9.336;2024-03-22T03:16:28;23.27;;;14.43;;
5981;SDS011;3018;48.730;9.336;2024-03-22T03:18:55;20.05;;;14.00;;
5981;SDS011;3018;48.730;9.336;2024-03-22T03:21:20;17.17;;;13.77;;
5981;SDS011;3018;48.730;9.336;2024-03-22T03:23:47;20.20;;;13.85;;
5981;SDS011;3018;48.730;9.336;2024-03-22T03:26:12;19.80;;;14.32;;
5981;SDS011;3018;48.730;9.336;2024-03-22T03:28:39;16.27;;;13.23;;
5981;SDS011;3018;48.730;9.336;2024-03-22T03:31:04;18.20;;;12.73;;
5981;SDS011;3018;48.730;9.336;2024-03-22T03:33:32;19.08;;;14.30;;
5981;SDS011;3018;48.730;9.336;2024-03-22T03:35:57;18.77;;;14.20;;
5981;SDS011;3018;48.730;9.336;2024-03-22T03:38:23;19.08;;;14.02;;
5981;SDS011;3018;48.730;9.336;2024-03-22T03:40:48;18.27;;;14.50;;
5981;SDS011;3018;48.730;9.336;2024-03-22T03:43:15;19.05;;;14.15;;
5981;SDS011;3018;48.730;9.336;2024-03-22T03:45:40;18.05;;;13.85;;
5981;SDS011;3018;48.730;9.336;2024-03-22T03:48:07;17.00;;;13.65;;
5981;SDS011;3018;48.730;9.336;2024-03-22T03:50:33;16.30;;;13.38;;
5981;SDS011;3018;48.730;9.336;2024-03-22T03:53:00;17.95;;;12.95;;
5981;SDS011;3018;48.730;9.336;2024-03-22T03:55:25;17.55;;;13.60;;
5981;SDS011;3018;48.730;9.336;2024-03-22T03:57:51;18.85;;;13.48;;
5981;SDS011;3018;48.730;9.336;2024-03-22T04:00:17;20.25;;;14.07;;
5981;SDS011;3018;48.730;9.336;2024-03-22T04:02:43;19.92;;;13.18;;
5981;SDS011;3018;48.730;9.336;2024-03-22T04:05:08;19.20;;;14.15;;
5981;SDS011;3018;48.730;9.336;2024-03-22T04:07:36;17.55;;;12.98;;
5981;SDS011;3018;48.730;9.336;2024-03-22T04:10:01;16.90;;;11.88;;
5981;SDS011;3018;48.730;9.336;2024-03-22T04:12:28;18.30;;;13.05;;
5981;SDS011;3018;48.730;9.336;2024-03-22T04:14:54;17.30;;;12.75;;
5981;SDS011;3018;48.730;9.336;2024-03-22T04:17:20;19.13;;;12.35;;
5981;SDS011;3018;48.730;9.336;2024-03-22T04:19:45;16.23;;;11.63;;
5981;SDS011;3018;48.730;9.336;2024-03-22T04:22:11;17.13;;;11.68;;
5981;SDS011;3018;48.730;9.336;2024-03-22T04:24:38;14.82;;;11.70;;
5981;SDS011;3018;48.730;9.336;2024-03-22T04:27:04;16.02;;;11.68;;
5981;SDS011;3018;48.730;9.336;2024-03-22T04:29:30;14.77;;;11.65;;
5981;SDS011;3018;48.730;9.336;2024-03-22T04:31:56;18.65;;;11.55;;
5981;SDS011;3018;48.730;9.336;2024-03-22T04:34:21;13.45;;;11.82;;
5981;SDS011;3018;48.730;9.336;2024-03-22T04:36:48;15.82;;;12.27;;
5981;SDS011;3018;48.730;9.336;2024-03-22T04:39:13;17.25;;;12.80;;
5981;SDS011;3018;48.730;9.336;2024-03-22T04:41:42;14.57;;;11.98;;
5981;SDS011;3018;48.730;9.336;2024-03-22T04:44:09;21.05;;;12.82;;
5981;SDS011;3018;48.730;9.336;2024-03-22T04:46:35;17.73;;;12.77;;
5981;SDS011;3018;48.730;9.336;2024-03-22T04:49:00;17.50;;;12.98;;
5981;SDS011;3018;48.730;9.336;2024-03-22T04:51:26;19.63;;;13.88;;
5981;SDS011;3018;48.730;9.336;2024-03-22T04:53:52;22.58;;;14.70;;
5981;SDS011;3018;48.730;9.336;2024-03-22T04:56:18;25.58;;;14.55;;
5981;SDS011;3018;48.730;9.336;2024-03-22T04:58:45;22.25;;;14.43;;
5981;SDS011;3018;48.730;9.336;2024-03-22T05:01:11;20.77;;;13.73;;
5981;SDS011;3018;48.730;9.336;2024-03-22T05:03:37;19.33;;;14.35;;
5981;SDS011;3018;48.730;9.336;2024-03-22T05:06:04;15.93;;;13.40;;
5981;SDS011;3018;48.730;9.336;2024-03-22T05:08:31;17.33;;;14.18;;
5981;SDS011;3018;48.730;9.336;2024-03-22T05:10:57;19.58;;;13.80;;
5981;SDS011;3018;48.730;9.336;2024-03-22T05:13:23;17.15;;;13.88;;
5981;SDS011;3018;48.730;9.336;2024-03-22T05:15:50;21.63;;;14.18;;
5981;SDS011;3018;48.730;9.336;2024-03-22T05:18:16;22.73;;;14.35;;
5981;SDS011;3018;48.730;9.336;2024-03-22T05:20:42;18.90;;;13.75;;
5981;SDS011;3018;48.730;9.336;2024-03-22T05:23:07;19.55;;;13.23;;
5981;SDS011;3018;48.730;9.336;2024-03-22T05:25:34;16.38;;;13.27;;
5981;SDS011;3018;48.730;9.336;2024-03-22T05:27:59;16.52;;;12.93;;
5981;SDS011;3018;48.730;9.336;2024-03-22T05:30:26;20.85;;;13.60;;
5981;SDS011;3018;48.730;9.336;2024-03-22T05:32:52;20.38;;;13.95;;
5981;SDS011;3018;48.730;9.336;2024-03-22T05:35:18;19.60;;;14.68;;
5981;SDS011;3018;48.730;9.336;2024-03-22T05:37:44;18.60;;;13.77;;
5981;SDS011;3018;48.730;9.336;2024-03-22T05:40:11;17.48;;;13.07;;
5981;SDS011;3018;48.730;9.336;2024-03-22T05:42:37;18.92;;;14.15;;
5981;SDS011;3018;48.730;9.336;2024-03-22T05:45:03;20.92;;;14.40;;
5981;SDS011;3018;48.730;9.336;2024-03-22T05:47:29;23.08;;;15.00;;
5981;SDS011;3018;48.730;9.336;2024-03-22T05:49:57;18.40;;;14.45;;
5981;SDS011;3018;48.730;9.336;2024-03-22T05:52:22;17.02;;;13.70;;
5981;SDS011;3018;48.730;9.336;2024-03-22T05:54:49;22.05;;;14.10;;
5981;SDS011;3018;48.730;9.336;2024-03-22T05:57:14;19.30;;;14.57;;
5981;SDS011;3018;48.730;9.336;2024-03-22T05:59:40;21.98;;;15.70;;
5981;SDS011;3018;48.730;9.336;2024-03-22T06:02:05;20.90;;;15.68;;
5981;SDS011;3018;48.730;9.336;2024-03-22T06:04:32;19.77;;;15.98;;
5981;SDS011;3018;48.730;9.336;2024-03-22T06:06:58;22.73;;;15.73;;
5981;SDS011;3018;48.730;9.336;2024-03-22T06:09:25;19.13;;;15.32;;
5981;SDS011;3018;48.730;9.336;2024-03-22T06:11:59;20.27;;;15.25;;
5981;SDS011;3018;48.730;9.336;2024-03-22T06:14:27;22.42;;;16.08;;
5981;SDS011;3018;48.730;9.336;2024-03-22T06:16:52;24.73;;;15.93;;
5981;SDS011;3018;48.730;9.336;2024-03-22T06:19:18;24.88;;;15.73;;
5981;SDS011;3018;48.730;9.336;2024-03-22T06:21:44;26.42;;;16.33;;
5981;SDS011;3018;48.730;9.336;2024-03-22T06:24:11;31.48;;;15.52;;
5981;SDS011;3018;48.730;9.336;2024-03-22T06:26:36;25.45;;;14.77;;
5981;SDS011;3018;48.730;9.336;2024-03-22T06:29:03;22.45;;;14.65;;
5981;SDS011;3018;48.730;9.336;2024-03-22T06:31:28;24.30;;;15.38;;
5981;SDS011;3018;48.730;9.336;2024-03-22T06:33:54;27.65;;;15.05;;
5981;SDS011;3018;48.730;9.336;2024-03-22T06:36:21;24.92;;;15.07;;
5981;SDS011;3018;48.730;9.336;2024-03-22T06:38:48;19.33;;;15.20;;
5981;SDS011;3018;48.730;9.336;2024-03-22T06:41:14;20.27;;;14.93;;
5981;SDS011;3018;48.730;9.336;2024-03-22T06:43:41;18.60;;;14.98;;
5981;SDS011;3018;48.730;9.336;2024-03-22T06:46:06;20.27;;;14.55;;
5981;SDS011;3018;48.730;9.336;2024-03-22T06:48:32;26.80;;;16.48;;
5981;SDS011;3018;48.730;9.336;2024-03-22T06:51:09;22.30;;;15.48;;
5981;SDS011;3018;48.730;9.336;2024-03-22T06:53:36;25.35;;;16.77;;
5981;SDS011;3018;48.730;9.336;2024-03-22T06:56:01;21.75;;;15.18;;
5981;SDS011;3018;48.730;9.336;2024-03-22T06:58:29;29.58;;;16.23;;
5981;SDS011;3018;48.730;9.336;2024-03-22T07:00:54;30.63;;;16.48;;
5981;SDS011;3018;48.730;9.336;2024-03-22T07:03:20;25.98;;;15.77;;
5981;SDS011;3018;48.730;9.336;2024-03-22T07:05:46;29.98;;;15.10;;
5981;SDS011;3018;48.730;9.336;2024-03-22T07:08:12;27.98;;;15.68;;
5981;SDS011;3018;48.730;9.336;2024-03-22T07:10:38;25.30;;;15.48;;
5981;SDS011;3018;48.730;9.336;2024-03-22T07:13:04;23.98;;;16.20;;
5981;SDS011;3018;48.730;9.336;2024-03-22T07:15:31;23.77;;;14.50;;
5981;SDS011;3018;48.730;9.336;2024-03-22T07:17:57;23.88;;;15.55;;
5981;SDS011;3018;48.730;9.336;2024-03-22T07:20:23;25.00;;;14.77;;
5981;SDS011;3018;48.730;9.336;2024-03-22T07:22:49;21.48;;;15.07;;
5981;SDS011;3018;48.730;9.336;2024-03-22T07:25:14;18.23;;;14.15;;
5981;SDS011;3018;48.730;9.336;2024-03-22T07:27:41;26.13;;;14.10;;
5981;SDS011;3018;48.730;9.336;2024-03-22T07:30:06;28.65;;;14.93;;
5981;SDS011;3018;48.730;9.336;2024-03-22T07:32:34;21.70;;;13.77;;
5981;SDS011;3018;48.730;9.336;2024-03-22T07:35:00;28.77;;;14.75;;
5981;SDS011;3018;48.730;9.336;2024-03-22T07:37:26;21.27;;;12.57;;
5981;SDS011;3018;48.730;9.336;2024-03-22T07:39:52;22.98;;;13.88;;
5981;SDS011;3018;48.730;9.336;2024-03-22T07:42:18;21.02;;;13.57;;
5981;SDS011;3018;48.730;9.336;2024-03-22T07:44:43;20.65;;;13.73;;
5981;SDS011;3018;48.730;9.336;2024-03-22T07:47:10;16.98;;;13.45;;
5981;SDS011;3018;48.730;9.336;2024-03-22T07:49:37;18.88;;;12.70;;
5981;SDS011;3018;48.730;9.336;2024-03-22T07:52:03;18.88;;;12.65;;
5981;SDS011;3018;48.730;9.336;2024-03-22T07:54:29;15.52;;;11.98;;
5981;SDS011;3018;48.730;9.336;2024-03-22T07:56:55;19.27;;;12.80;;
5981;SDS011;3018;48.730;9.336;2024-03-22T07:59:20;15.85;;;12.40;;
5981;SDS011;3018;48.730;9.336;2024-03-22T08:01:47;18.98;;;12.32;;
5981;SDS011;3018;48.730;9.336;2024-03-22T08:04:13;18.30;;;11.77;;
5981;SDS011;3018;48.730;9.336;2024-03-22T08:06:41;15.57;;;11.45;;
5981;SDS011;3018;48.730;9.336;2024-03-22T08:09:06;15.10;;;10.85;;
5981;SDS011;3018;48.730;9.336;2024-03-22T08:11:32;17.30;;;12.43;;
5981;SDS011;3018;48.730;9.336;2024-03-22T08:13:58;13.60;;;11.73;;
5981;SDS011;3018;48.730;9.336;2024-03-22T08:16:28;15.85;;;12.18;;
5981;SDS011;3018;48.730;9.336;2024-03-22T08:18:53;16.70;;;11.85;;
5981;SDS011;3018;48.730;9.336;2024-03-22T08:21:20;17.88;;;12.27;;
5981;SDS011;3018;48.730;9.336;2024-03-22T08:23:46;21.20;;;11.85;;
5981;SDS011;3018;48.730;9.336;2024-03-22T08:26:12;17.48;;;11.82;;
5981;SDS011;3018;48.730;9.336;2024-03-22T08:28:38;18.25;;;11.57;;
5981;SDS011;3018;48.730;9.336;2024-03-22T08:31:04;13.85;;;11.20;;
5981;SDS011;3018;48.730;9.336;2024-03-22T08:33:29;12.23;;;10.20;;
5981;SDS011;3018;48.730;9.336;2024-03-22T08:35:56;13.98;;;11.40;;
5981;SDS011;3018;48.730;9.336;2024-03-22T08:38:21;13.93;;;10.93;;
5981;SDS011;3018;48.730;9.336;2024-03-22T08:40:51;15.60;;;11.35;;
5981;SDS011;3018;48.730;9.336;2024-03-22T08:43:16;14.68;;;10.88;;
5981;SDS011;3018;48.730;9.336;2024-03-22T08:45:42;12.27;;;10.68;;
5981;SDS011;3018;48.730;9.336;2024-03-22T08:48:07;14.27;;;9.88;;
5981;SDS011;3018;48.730;9.336;2024-03-22T08:50:34;14.32;;;10.20;;
5981;SDS011;3018;48.730;9.336;2024-03-22T08:52:59;19.60;;;11.75;;
5981;SDS011;3018;48.730;9.336;2024-03-22T08:55:28;18.00;;;10.38;;
5981;SDS011;3018;48.730;9.336;2024-03-22T08:57:54;16.92;;;11.30;;
5981;SDS011;3018;48.730;9.336;2024-03-22T09:00:21;15.35;;;10.52;;
5981;SDS011;3018;48.730;9.336;2024-03-22T09:02:46;17.23;;;10.55;;
5981;SDS011;3018;48.730;9.336;2024-03-22T09:05:12;16.40;;;10.77;;
5981;SDS011;3018;48.730;9.336;2024-03-22T09:07:37;15.80;;;10.13;;
5981;SDS011;3018;48.730;9.336;2024-03-22T09:10:04;15.88;;;10.52;;
5981;SDS011;3018;48.730;9.336;2024-03-22T09:12:30;12.48;;;10.27;;
5981;SDS011;3018;48.730;9.336;2024-03-22T09:14:57;15.27;;;9.88;;
5981;SDS011;3018;48.730;9.336;2024-03-22T09:17:22;11.63;;;9.50;;
5981;SDS011;3018;48.730;9.336;2024-03-22T09:19:49;15.60;;;10.00;;
5981;SDS011;3018;48.730;9.336;2024-03-22T09:22:14;13.07;;;10.20;;
5981;SDS011;3018;48.730;9.336;2024-03-22T09:24:41;12.68;;;9.45;;
5981;SDS011;3018;48.730;9.336;2024-03-22T09:27:06;16.75;;;9.75;;
5981;SDS011;3018;48.730;9.336;2024-03-22T09:29:33;9.98;;;8.98;;
5981;SDS011;3018;48.730;9.336;2024-03-22T09:32:00;11.10;;;9.48;;
5981;SDS011;3018;48.730;9.336;2024-03-22T09:34:27;15.05;;;9.90;;
5981;SDS011;3018;48.730;9.336;2024-03-22T09:36:52;11.35;;;9.93;;
5981;SDS011;3018;48.730;9.336;2024-03-22T09:39:18;10.75;;;9.68;;
5981;SDS011;3018;48.730;9.336;2024-03-22T09:41:43;13.23;;;9.52;;
5981;SDS011;3018;48.730;9.336;2024-03-22T09:44:12;13.20;;;8.82;;
5981;SDS011;3018;48.730;9.336;2024-03-22T09:46:37;13.20;;;9.23;;
5981;SDS011;3018;48.730;9.336;2024-03-22T09:49:05;11.05;;;8.85;;
5981;SDS011;3018;48.730;9.336;2024-03-22T09:51:31;10.15;;;8.82;;
5981;SDS011;3018;48.730;9.336;2024-03-22T09:53:57;9.10;;;7.95;;
5981;SDS011;3018;48.730;9.336;2024-03-22T09:56:23;14.48;;;7.50;;
5981;SDS011;3018;48.730;9.336;2024-03-22T09:58:50;14.23;;;7.95;;
5981;SDS011;3018;48.730;9.336;2024-03-22T10:01:15;16.00;;;8.63;;
5981;SDS011;3018;48.730;9.336;2024-03-22T10:03:42;11.20;;;7.53;;
5981;SDS011;3018;48.730;9.336;2024-03-22T10:06:09;9.27;;;6.93;;
5981;SDS011;3018;48.730;9.336;2024-03-22T10:08:36;10.15;;;7.03;;
5981;SDS011;3018;48.730;9.336;2024-03-22T10:11:01;12.18;;;6.63;;
5981;SDS011;3018;48.730;9.336;2024-03-22T10:13:28;8.45;;;7.22;;
5981;SDS011;3018;48.730;9.336;2024-03-22T10:15:54;7.60;;;6.45;;
5981;SDS011;3018;48.730;9.336;2024-03-22T10:18:20;7.03;;;6.07;;
5981;SDS011;3018;48.730;9.336;2024-03-22T10:20:46;9.68;;;5.68;;
5981;SDS011;3018;48.730;9.336;2024-03-22T10:23:14;7.60;;;6.80;;
5981;SDS011;3018;48.730;9.336;2024-03-22T10:25:39;10.20;;;5.82;;
5981;SDS011;3018;48.730;9.336;2024-03-22T10:28:05;7.60;;;5.70;;
5981;SDS011;3018;48.730;9.336;2024-03-22T10:30:31;10.30;;;5.72;;
5981;SDS011;3018;48.730;9.336;2024-03-22T10:33:01;7.07;;;5.95;;
5981;SDS011;3018;48.730;9.336;2024-03-22T10:35:28;7.18;;;5.60;;
5981;SDS011;3018;48.730;9.336;2024-03-22T10:37:54;8.65;;;5.00;;
5981;SDS011;3018;48.730;9.336;2024-03-22T10:40:21;7.20;;;4.85;;
5981;SDS011;3018;48.730;9.336;2024-03-22T10:42:48;7.80;;;5.95;;
5981;SDS011;3018;48.730;9.336;2024-03-22T10:45:13;11.80;;;5.57;;
5981;SDS011;3018;48.730;9.336;2024-03-22T10:47:39;5.25;;;4.70;;
5981;SDS011;3018;48.730;9.336;2024-03-22T10:50:05;6.90;;;5.22;;
5981;SDS011;3018;48.730;9.336;2024-03-22T10:52:33;10.45;;;5.20;;
5981;SDS011;3018;48.730;9.336;2024-03-22T10:54:59;11.55;;;6.32;;
5981;SDS011;3018;48.730;9.336;2024-03-22T10:57:27;11.90;;;6.10;;
5981;SDS011;3018;48.730;9.336;2024-03-22T10:59:54;5.45;;;4.95;;
5981;SDS011;3018;48.730;9.336;2024-03-22T11:02:23;5.63;;;4.72;;
5981;SDS011;3018;48.730;9.336;2024-03-22T11:04:53;6.32;;;4.90;;
5981;SDS011;3018;48.730;9.336;2024-03-22T11:07:19;9.90;;;5.20;;
5981;SDS011;3018;48.730;9.336;2024-03-22T11:09:51;8.85;;;5.30;;
5981;SDS011;3018;48.730;9.336;2024-03-22T11:12:18;7.80;;;4.55;;
5981;SDS011;3018;48.730;9.336;2024-03-22T11:14:46;6.85;;;4.90;;
5981;SDS011;3018;48.730;9.336;2024-03-22T11:17:12;10.35;;;4.43;;
5981;SDS011;3018;48.730;9.336;2024-03-22T11:19:38;4.55;;;4.13;;
5981;SDS011;3018;48.730;9.336;2024-03-22T11:22:04;7.30;;;4.32;;
5981;SDS011;3018;48.730;9.336;2024-03-22T11:24:31;6.85;;;3.97;;
5981;SDS011;3018;48.730;9.336;2024-03-22T11:26:57;7.18;;;4.22;;
5981;SDS011;3018;48.730;9.336;2024-03-22T11:29:24;8.27;;;4.45;;
5981;SDS011;3018;48.730;9.336;2024-03-22T11:31:51;7.20;;;4.45;;
5981;SDS011;3018;48.730;9.336;2024-03-22T11:34:17;3.30;;;3.10;;
5981;SDS011;3018;48.730;9.336;2024-03-22T11:36:43;5.00;;;3.58;;
5981;SDS011;3018;48.730;9.336;2024-03-22T11:39:08;5.32;;;3.22;;
5981;SDS011;3018;48.730;9.336;2024-03-22T11:41:35;4.45;;;3.22;;
5981;SDS011;3018;48.730;9.336;2024-03-22T11:44:00;3.53;;;3.28;;
5981;SDS011;3018;48.730;9.336;2024-03-22T11:46:27;4.25;;;2.42;;
5981;SDS011;3018;48.730;9.336;2024-03-22T11:48:54;7.10;;;3.17;;
5981;SDS011;3018;48.730;9.336;2024-03-22T11:51:20;5.03;;;3.40;;
5981;SDS011;3018;48.730;9.336;2024-03-22T11:53:49;3.53;;;3.22;;
5981;SDS011;3018;48.730;9.336;2024-03-22T11:56:17;3.97;;;3.50;;
5981;SDS011;3018;48.730;9.336;2024-03-22T11:58:42;5.03;;;3.60;;
5981;SDS011;3018;48.730;9.336;2024-03-22T12:01:08;3.33;;;2.90;;
5981;SDS011;3018;48.730;9.336;2024-03-22T12:03:34;7.03;;;3.30;;
5981;SDS011;3018;48.730;9.336;2024-03-22T12:06:02;3.22;;;2.50;;
5981;SDS011;3018;48.730;9.336;2024-03-22T12:08:29;6.40;;;3.00;;
5981;SDS011;3018;48.730;9.336;2024-03-22T12:10:55;3.75;;;3.40;;
5981;SDS011;3018;48.730;9.336;2024-03-22T12:13:20;2.97;;;2.78;;
5981;SDS011;3018;48.730;9.336;2024-03-22T12:15:46;4.75;;;3.08;;
5981;SDS011;3018;48.730;9.336;2024-03-22T12:18:12;5.20;;;2.95;;
5981;SDS011;3018;48.730;9.336;2024-03-22T12:20:38;4.93;;;3.00;;
5981;SDS011;3018;48.730;9.336;2024-03-22T12:23:05;6.13;;;3.40;;
5981;SDS011;3018;48.730;9.336;2024-03-22T12:25:31;3.30;;;3.03;;
5981;SDS011;3018;48.730;9.336;2024-03-22T12:27:56;3.15;;;2.90;;
5981;SDS011;3018;48.730;9.336;2024-03-22T12:30:23;6.40;;;3.42;;
5981;SDS011;3018;48.730;9.336;2024-03-22T12:32:48;5.80;;;3.20;;
5981;SDS011;3018;48.730;9.336;2024-03-22T12:35:14;3.67;;;2.70;;
5981;SDS011;3018;48.730;9.336;2024-03-22T12:37:39;4.25;;;3.40;;
5981;SDS011;3018;48.730;9.336;2024-03-22T12:40:08;4.35;;;2.63;;
5981;SDS011;3018;48.730;9.336;2024-03-22T12:42:33;5.45;;;2.70;;
5981;SDS011;3018;48.730;9.336;2024-03-22T12:44:59;4.72;;;3.00;;
5981;SDS011;3018;48.730;9.336;2024-03-22T12:47:25;6.15;;;2.83;;
5981;SDS011;3018;48.730;9.336;2024-03-22T12:49:51;3.25;;;2.95;;
5981;SDS011;3018;48.730;9.336;2024-03-22T12:52:16;3.40;;;2.95;;
5981;SDS011;3018;48.730;9.336;2024-03-22T12:54:43;3.83;;;2.92;;
5981;SDS011;3018;48.730;9.336;2024-03-22T12:57:09;5.80;;;3.08;;
5981;SDS011;3018;48.730;9.336;2024-03-22T12:59:36;3.13;;;2.90;;
5981;SDS011;3018;48.730;9.336;2024-03-22T13:02:01;2.83;;;2.67;;
5981;SDS011;3018;48.730;9.336;2024-03-22T13:04:27;7.30;;;3.42;;
5981;SDS011;3018;48.730;9.336;2024-03-22T13:06:52;3.65;;;2.70;;
5981;SDS011;3018;48.730;9.336;2024-03-22T13:09:19;4.88;;;2.75;;
5981;SDS011;3018;48.730;9.336;2024-03-22T13:11:46;5.53;;;2.88;;
5981;SDS011;3018;48.730;9.336;2024-03-22T13:14:14;3.58;;;3.25;;
5981;SDS011;3018;48.730;9.336;2024-03-22T13:16:39;3.78;;;3.17;;
5981;SDS011;3018;48.730;9.336;2024-03-22T13:19:05;2.70;;;2.50;;
5981;SDS011;3018;48.730;9.336;2024-03-22T13:21:33;3.30;;;3.05;;
5981;SDS011;3018;48.730;9.336;2024-03-22T13:23:59;6.68;;;3.60;;
5981;SDS011;3018;48.730;9.336;2024-03-22T13:26:24;3.75;;;3.20;;
5981;SDS011;3018;48.730;9.336;2024-03-22T13:28:51;5.85;;;2.78;;
5981;SDS011;3018;48.730;9.336;2024-03-22T13:31:18;4.45;;;3.28;;
5981;SDS011;3018;48.730;9.336;2024-03-22T13:33:44;4.07;;;2.60;;
5981;SDS011;3018;48.730;9.336;2024-03-22T13:36:09;2.72;;;2.40;;
5981;SDS011;3018;48.730;9.336;2024-03-22T13:38:36;5.15;;;2.55;;
5981;SDS011;3018;48.730;9.336;2024-03-22T13:41:01;3.30;;;2.90;;
5981;SDS011;3018;48.730;9.336;2024-03-22T13:43:29;3.50;;;2.75;;
5981;SDS011;3018;48.730;9.336;2024-03-22T13:45:54;4.85;;;2.65;;
5981;SDS011;3018;48.730;9.336;2024-03-22T13:48:22;4.72;;;2.53;;
5981;SDS011;3018;48.730;9.336;2024-03-22T13:50:49;5.80;;;2.45;;
5981;SDS011;3018;48.730;9.336;2024-03-22T13:53:15;2.97;;;2.78;;
5981;SDS011;3018;48.730;9.336;2024-03-22T13:55:42;6.22;;;2.60;;
5981;SDS011;3018;48.730;9.336;2024-03-22T13:58:08;4.68;;;2.65;;
5981;SDS011;3018;48.730;9.336;2024-03-22T14:00:33;4.85;;;2.38;;
5981;SDS011;3018;48.730;9.336;2024-03-22T14:03:00;3.85;;;2.38;;
5981;SDS011;3018;48.730;9.336;2024-03-22T14:05:27;5.03;;;2.83;;
5981;SDS011;3018;48.730;9.336;2024-03-22T14:07:54;3.03;;;2.38;;
5981;SDS011;3018;48.730;9.336;2024-03-22T14:10:19;7.18;;;2.72;;
5981;SDS011;3018;48.730;9.336;2024-03-22T14:12:46;2.80;;;2.03;;
5981;SDS011;3018;48.730;9.336;2024-03-22T14:15:12;2.33;;;2.22;;
5981;SDS011;3018;48.730;9.336;2024-03-22T14:17:38;2.28;;;2.10;;
5981;SDS011;3018;48.730;9.336;2024-03-22T14:20:04;3.80;;;2.45;;
5981;SDS011;3018;48.730;9.336;2024-03-22T14:22:36;3.70;;;2.67;;
5981;SDS011;3018;48.730;9.336;2024-03-22T14:25:01;3.05;;;2.60;;
5981;SDS011;3018;48.730;9.336;2024-03-22T14:27:28;2.83;;;2.28;;
5981;SDS011;3018;48.730;9.336;2024-03-22T14:29:54;6.90;;;2.75;;
5981;SDS011;3018;48.730;9.336;2024-03-22T14:32:20;3.13;;;2.13;;
5981;SDS011;3018;48.730;9.336;2024-03-22T14:34:45;3.70;;;2.28;;
5981;SDS011;3018;48.730;9.336;2024-03-22T14:37:11;4.30;;;2.50;;
5981;SDS011;3018;48.730;9.336;2024-03-22T14:39:38;8.13;;;2.83;;
5981;SDS011;3018;48.730;9.336;2024-03-22T14:42:06;2.40;;;2.20;;
5981;SDS011;3018;48.730;9.336;2024-03-22T14:44:31;4.05;;;2.33;;
5981;SDS011;3018;48.730;9.336;2024-03-22T14:46:58;2.13;;;2.03;;
5981;SDS011;3018;48.730;9.336;2024-03-22T14:49:23;4.97;;;2.30;;
5981;SDS011;3018;48.730;9.336;2024-03-22T14:51:49;4.82;;;2.58;;